Time;durP1;ratioP1;P1;durP2;ratioP2;P2;SDS_P1;SDS_P2;PMS_P1;PMS_P2;Temp;Humidity;BMP_temperature;BMP_pressure;BME280_temperature;BME280_humidity;BME280_pressure;Samples;Min_cycle;Max_cycle;Signal;HPM_P1;HPM_P2
2021/04/23 00:00:14;;;;;;;18.70;6.27;;;5.90;78.30;;;;;;5030147;28;20465;-63
2021/04/23 00:02:40;;;;;;;21.33;6.70;;;5.80;78.40;;;;;;5031231;28;20057;-62
2021/04/23 00:05:06;;;;;;;22.73;6.67;;;5.80;78.50;;;;;;5030392;28;20545;-63
2021/04/23 00:07:32;;;;;;;20.57;7.23;;;5.70;78.40;;;;;;5012669;28;20121;-63
2021/04/23 00:09:57;;;;;;;20.40;6.70;;;5.70;78.60;;;;;;5031132;28;20124;-63
2021/04/23 00:12:23;;;;;;;16.57;6.27;;;5.70;78.70;;;;;;5030695;28;20133;-63
2021/04/23 00:14:51;;;;;;;19.80;6.47;;;5.70;78.80;;;;;;5012905;28;20056;-63
2021/04/23 00:17:18;;;;;;;22.00;6.67;;;5.70;79.00;;;;;;4996001;28;20041;-63
2021/04/23 00:19:45;;;;;;;21.97;7.40;;;5.70;79.30;;;;;;5031703;28;20382;-61
2021/04/23 00:22:12;;;;;;;20.77;6.47;;;5.80;79.60;;;;;;5031222;28;20025;-61
2021/04/23 00:24:37;;;;;;;15.10;6.23;;;5.70;79.60;;;;;;5012572;28;20087;-61
2021/04/23 00:27:04;;;;;;;23.20;6.83;;;5.80;79.60;;;;;;5012907;28;20053;-61
2021/04/23 00:29:30;;;;;;;20.00;6.53;;;5.80;79.70;;;;;;5029864;28;20036;-62
2021/04/23 00:31:57;;;;;;;18.00;6.60;;;5.80;79.90;;;;;;5029335;28;20120;-61
2021/04/23 00:34:22;;;;;;;20.23;6.53;;;5.90;80.00;;;;;;5013147;28;20133;-61
2021/04/23 00:36:48;;;;;;;19.80;6.80;;;5.90;80.00;;;;;;5030187;28;20112;-61
2021/04/23 00:39:14;;;;;;;22.27;7.00;;;6.00;79.70;;;;;;5030078;28;20128;-61
2021/04/23 00:41:39;;;;;;;25.60;6.80;;;6.00;79.40;;;;;;5013131;28;20034;-61
2021/04/23 00:44:05;;;;;;;20.73;6.73;;;5.90;79.20;;;;;;4996585;28;20088;-61
2021/04/23 00:46:34;;;;;;;21.77;6.80;;;5.90;79.20;;;;;;5030284;28;20405;-60
2021/04/23 00:49:01;;;;;;;20.03;6.50;;;5.80;79.10;;;;;;5011824;28;20569;-61
2021/04/23 00:51:41;;;;;;;;;;;5.70;79.30;;;;;;5033805;28;20092;-60
2021/04/23 00:54:09;;;;;;;19.47;6.77;;;5.70;79.30;;;;;;5016541;28;19935;-61
2021/04/23 00:56:39;;;;;;;19.57;6.47;;;5.60;79.40;;;;;;5016703;28;20504;-61
2021/04/23 00:59:09;;;;;;;21.03;6.73;;;5.60;79.40;;;;;;5033054;28;20038;-61
2021/04/23 01:01:37;;;;;;;19.53;7.13;;;5.60;79.60;;;;;;5034460;28;20038;-61
2021/04/23 01:04:14;;;;;;;20.73;6.70;;;5.60;79.70;;;;;;5000157;28;20422;-61
2021/04/23 01:06:41;;;;;;;24.93;6.87;;;5.60;79.80;;;;;;5015986;28;20037;-61
2021/04/23 01:09:14;;;;;;;22.87;7.20;;;5.50;79.70;;;;;;5033919;28;20231;-61
2021/04/23 01:11:41;;;;;;;22.37;6.80;;;5.60;79.80;;;;;;5033883;28;20098;-61
2021/04/23 01:14:07;;;;;;;17.97;6.93;;;5.50;80.10;;;;;;5017138;28;20669;-61
2021/04/23 01:16:33;;;;;;;25.30;6.97;;;5.50;80.30;;;;;;5034372;28;20091;-61
2021/04/23 01:19:00;;;;;;;21.83;6.97;;;5.50;80.10;;;;;;5031408;28;20037;-61
2021/04/23 01:21:28;;;;;;;21.63;7.53;;;5.50;80.00;;;;;;5016332;28;20387;-61
2021/04/23 01:23:56;;;;;;;18.10;6.87;;;5.50;79.90;;;;;;5015866;28;20406;-61
2021/04/23 01:26:26;;;;;;;20.57;6.87;;;5.40;80.10;;;;;;5016014;28;20045;-61
2021/04/23 01:28:53;;;;;;;26.43;7.33;;;5.50;80.40;;;;;;5033259;28;20045;-61
2021/04/23 01:31:22;;;;;;;19.90;7.07;;;5.40;80.90;;;;;;5034019;28;20550;-61
2021/04/23 01:33:51;;;;;;;21.43;6.07;;;5.40;80.50;;;;;;5033806;28;20045;-61
2021/04/23 01:36:17;;;;;;;22.47;6.33;;;5.50;80.50;;;;;;5015798;28;20682;-60
2021/04/23 01:38:47;;;;;;;21.93;6.40;;;5.40;80.50;;;;;;5033435;28;20121;-61
2021/04/23 01:41:13;;;;;;;20.97;6.57;;;5.40;80.60;;;;;;5033307;28;20044;-61
2021/04/23 01:43:39;;;;;;;20.20;6.43;;;5.40;80.70;;;;;;5033737;28;20033;-61
2021/04/23 01:46:06;;;;;;;21.93;6.07;;;5.40;80.60;;;;;;5032923;28;20045;-61
2021/04/23 01:48:32;;;;;;;20.50;6.67;;;5.40;80.70;;;;;;5033287;28;20121;-61
2021/04/23 01:50:59;;;;;;;22.07;6.13;;;5.40;80.50;;;;;;5033596;28;20120;-61
2021/04/23 01:53:25;;;;;;;20.13;6.03;;;5.40;80.50;;;;;;5032989;28;20060;-61
2021/04/23 01:55:51;;;;;;;20.37;5.83;;;5.30;81.00;;;;;;5015815;28;20030;-61
2021/04/23 01:58:16;;;;;;;26.13;6.10;;;5.30;80.60;;;;;;5015201;28;20587;-62
2021/04/23 02:00:48;;;;;;;25.53;6.80;;;5.30;80.60;;;;;;5033327;28;20049;-61
2021/04/23 02:03:16;;;;;;;21.43;6.30;;;5.30;80.70;;;;;;5032553;28;20046;-61
2021/04/23 02:05:42;;;;;;;21.73;6.10;;;5.30;80.80;;;;;;5032826;28;20041;-61
2021/04/23 02:08:10;;;;;;;19.00;5.47;;;5.30;80.90;;;;;;5015270;28;20037;-61
2021/04/23 02:10:43;;;;;;;21.53;5.67;;;5.20;80.80;;;;;;5032621;28;20037;-63
2021/04/23 02:13:09;;;;;;;18.60;6.27;;;5.20;80.60;;;;;;5015489;28;20041;-61
2021/04/23 02:15:35;;;;;;;19.07;5.67;;;5.20;81.10;;;;;;5015347;28;20039;-61
2021/04/23 02:18:03;;;;;;;17.57;5.40;;;5.20;81.10;;;;;;5014570;28;20080;-61
2021/04/23 02:20:31;;;;;;;18.50;5.90;;;5.20;80.90;;;;;;5032669;28;20052;-61
2021/04/23 02:22:59;;;;;;;17.93;5.03;;;5.10;81.00;;;;;;5032410;28;20037;-61
2021/04/23 02:25:27;;;;;;;15.07;5.03;;;5.10;81.20;;;;;;5015003;28;20053;-61
2021/04/23 02:27:53;;;;;;;24.37;6.00;;;5.20;81.40;;;;;;5032080;28;20487;-61
2021/04/23 02:30:23;;;;;;;18.53;5.33;;;5.10;81.40;;;;;;5015208;28;20136;-61
2021/04/23 02:32:49;;;;;;;22.83;5.15;;;5.20;81.60;;;;;;5032753;28;20048;-61
2021/04/23 02:35:16;;;;;;;19.10;5.13;;;5.20;81.70;;;;;;5032316;28;20029;-61
2021/04/23 02:37:42;;;;;;;19.27;5.43;;;5.20;82.00;;;;;;5032442;28;20445;-61
2021/04/23 02:40:12;;;;;;;18.00;5.50;;;5.30;82.40;;;;;;5032218;28;20053;-61
2021/04/23 02:42:39;;;;;;;20.65;5.43;;;5.40;82.70;;;;;;5032510;28;20034;-61
2021/04/23 02:45:07;;;;;;;15.90;4.37;;;5.50;82.70;;;;;;5015233;28;20037;-61
2021/04/23 02:47:33;;;;;;;20.83;4.53;;;5.60;82.50;;;;;;5032432;28;20045;-60
2021/04/23 02:49:58;;;;;;;16.03;4.77;;;5.70;82.30;;;;;;5033474;28;20041;-62
2021/04/23 02:52:24;;;;;;;12.63;4.47;;;5.70;82.00;;;;;;5034115;28;20044;-60
2021/04/23 02:54:50;;;;;;;19.87;4.57;;;5.80;81.80;;;;;;5016209;28;20037;-60
2021/04/23 02:57:16;;;;;;;17.43;4.77;;;5.90;81.70;;;;;;5035376;28;20041;-61
2021/04/23 02:59:43;;;;;;;23.03;4.93;;;5.90;81.30;;;;;;5018382;28;20061;-61
2021/04/23 03:02:10;;;;;;;18.80;4.57;;;5.90;81.20;;;;;;5035407;28;20401;-61
2021/04/23 03:04:36;;;;;;;18.00;4.67;;;6.00;81.10;;;;;;5032534;28;20112;-60
2021/04/23 03:07:02;;;;;;;14.83;3.87;;;6.00;81.00;;;;;;5031443;28;20059;-61
2021/04/23 03:09:28;;;;;;;17.63;3.93;;;6.10;80.80;;;;;;4997985;28;20099;-61
2021/04/23 03:11:54;;;;;;;17.20;3.90;;;6.10;80.50;;;;;;5031344;28;20029;-61
2021/04/23 03:14:20;;;;;;;16.57;3.60;;;6.10;80.10;;;;;;5013386;28;20053;-62
2021/04/23 03:16:46;;;;;;;14.27;3.57;;;6.10;80.00;;;;;;5014126;28;20038;-62
2021/04/23 03:19:15;;;;;;;13.97;3.53;;;6.20;79.90;;;;;;5013724;28;20582;-61
2021/04/23 03:21:41;;;;;;;15.53;3.77;;;6.20;79.60;;;;;;5031869;28;20034;-61
2021/04/23 03:24:09;;;;;;;15.47;3.77;;;6.20;79.30;;;;;;5031289;28;20044;-61
2021/04/23 03:26:35;;;;;;;14.93;3.60;;;6.20;79.10;;;;;;5014261;28;20033;-61
2021/04/23 03:29:02;;;;;;;17.03;3.50;;;6.20;78.80;;;;;;5013825;28;20033;-61
2021/04/23 03:31:27;;;;;;;13.60;3.40;;;6.20;78.70;;;;;;5013748;28;20064;-61
2021/04/23 03:33:53;;;;;;;15.50;3.97;;;6.30;78.50;;;;;;5031773;28;20053;-61
2021/04/23 03:36:19;;;;;;;16.80;3.70;;;6.30;78.20;;;;;;5013669;28;20041;-62
2021/04/23 03:38:47;;;;;;;16.57;4.07;;;6.30;78.00;;;;;;5013705;28;20038;-61
2021/04/23 03:41:17;;;;;;;13.33;3.50;;;6.20;77.70;;;;;;5013856;28;20045;-61
2021/04/23 03:43:43;;;;;;;17.80;3.80;;;6.20;77.70;;;;;;5031345;28;20040;-61
2021/04/23 03:46:10;;;;;;;13.50;3.33;;;6.30;77.70;;;;;;5031265;28;20033;-61
2021/04/23 03:48:37;;;;;;;15.40;3.47;;;6.30;77.40;;;;;;5030762;28;20049;-61
2021/04/23 03:51:04;;;;;;;14.40;2.97;;;6.20;77.10;;;;;;5031199;28;20037;-61
2021/04/23 03:53:31;;;;;;;16.87;3.30;;;6.20;76.90;;;;;;5013287;28;20037;-61
2021/04/23 03:55:57;;;;;;;16.40;3.20;;;6.20;76.80;;;;;;5030801;28;20040;-61
2021/04/23 03:58:23;;;;;;;13.20;3.10;;;6.20;76.60;;;;;;5012977;28;20036;-60
2021/04/23 04:00:55;;;;;;;17.90;3.23;;;6.20;76.40;;;;;;5030793;28;20516;-61
2021/04/23 04:03:24;;;;;;;13.63;2.97;;;6.20;76.20;;;;;;5013556;28;20038;-61
2021/04/23 04:05:50;;;;;;;14.27;2.77;;;6.10;76.10;;;;;;5030911;28;20037;-61
2021/04/23 04:08:17;;;;;;;22.03;3.47;;;6.10;75.90;;;;;;5030398;28;20033;-61
2021/04/23 04:10:44;;;;;;;16.17;3.10;;;6.10;75.90;;;;;;5031092;28;20042;-61
2021/04/23 04:13:10;;;;;;;18.50;3.07;;;6.10;75.70;;;;;;5030848;28;20042;-61
2021/04/23 04:15:38;;;;;;;13.23;3.00;;;6.00;75.40;;;;;;5031008;28;20129;-61
2021/04/23 04:18:05;;;;;;;16.00;3.23;;;6.00;75.30;;;;;;5030854;28;20038;-61
2021/04/23 04:20:34;;;;;;;14.60;2.83;;;6.00;75.30;;;;;;5030518;28;20033;-61
2021/04/23 04:22:59;;;;;;;17.47;2.93;;;6.00;75.50;;;;;;5013205;28;20037;-60
2021/04/23 04:25:28;;;;;;;22.70;3.67;;;6.00;75.50;;;;;;5031169;28;20040;-61
2021/04/23 04:27:55;;;;;;;17.47;3.03;;;6.00;75.40;;;;;;5034915;28;20029;-61
2021/04/23 04:30:22;;;;;;;14.53;3.00;;;6.00;75.20;;;;;;5034524;28;20120;-61
2021/04/23 04:32:48;;;;;;;16.27;3.10;;;6.00;75.10;;;;;;5034779;28;20041;-64
2021/04/23 04:35:14;;;;;;;13.00;3.00;;;6.10;75.10;;;;;;5001197;28;20053;-63
2021/04/23 04:37:40;;;;;;;15.93;3.50;;;6.00;75.00;;;;;;5034075;28;20041;-63
2021/04/23 04:40:08;;;;;;;16.67;3.03;;;6.00;74.80;;;;;;5017021;28;20060;-63
2021/04/23 04:42:34;;;;;;;13.63;3.20;;;6.10;74.90;;;;;;5034470;28;20520;-63
2021/04/23 04:45:02;;;;;;;19.87;6.60;;;6.10;74.90;;;;;;5034488;28;20037;-63
2021/04/23 04:47:29;;;;;;;18.40;3.70;;;6.10;74.90;;;;;;5034409;28;20052;-64
2021/04/23 04:49:55;;;;;;;15.67;3.00;;;6.10;74.80;;;;;;5034267;28;20486;-63
2021/04/23 04:52:21;;;;;;;13.37;3.00;;;6.10;74.80;;;;;;5000789;28;20033;-64
2021/04/23 04:54:47;;;;;;;17.30;3.00;;;6.20;75.50;;;;;;5017030;28;20036;-64
2021/04/23 04:57:12;;;;;;;20.50;3.30;;;6.20;74.90;;;;;;5033595;28;20412;-65
2021/04/23 04:59:38;;;;;;;13.87;2.67;;;6.30;74.80;;;;;;5017007;28;20117;-64
2021/04/23 05:02:03;;;;;;;17.33;3.00;;;6.40;74.80;;;;;;5016337;28;20033;-64
2021/04/23 05:04:29;;;;;;;15.43;3.03;;;6.40;74.80;;;;;;5034456;28;20041;-63
2021/04/23 05:06:55;;;;;;;15.30;3.10;;;6.60;75.30;;;;;;5016009;28;20494;-63
2021/04/23 05:09:20;;;;;;;16.63;3.03;;;6.90;76.90;;;;;;5033821;28;20033;-63
2021/04/23 05:11:46;;;;;;;12.87;2.90;;;7.30;77.30;;;;;;5016680;28;20068;-64
2021/04/23 05:14:12;;;;;;;14.60;2.67;;;7.70;76.50;;;;;;5016320;28;20036;-63
2021/04/23 05:16:37;;;;;;;15.80;2.87;;;8.10;76.30;;;;;;5033989;28;21078;-65
2021/04/23 05:19:03;;;;;;;13.60;2.77;;;8.50;76.50;;;;;;5016408;28;20398;-64
2021/04/23 05:21:29;;;;;;;14.73;2.80;;;9.00;76.40;;;;;;4999359;28;20045;-65
2021/04/23 05:23:55;;;;;;;12.93;2.87;;;9.40;75.00;;;;;;5034100;28;20048;-65
2021/04/23 05:26:20;;;;;;;14.68;2.97;;;9.80;73.90;;;;;;5016135;28;20049;-64
2021/04/23 05:28:46;;;;;;;13.63;2.65;;;10.30;73.40;;;;;;5015503;28;20034;-63
2021/04/23 05:31:12;;;;;;;9.95;2.38;;;10.60;72.20;;;;;;5033968;28;20036;-64
2021/04/23 05:33:38;;;;;;;10.73;2.22;;;10.90;71.80;;;;;;5015705;28;20041;-64
2021/04/23 05:36:04;;;;;;;8.50;2.28;;;11.30;71.50;;;;;;5033736;28;20121;-63
2021/04/23 05:38:29;;;;;;;14.40;2.53;;;11.80;70.70;;;;;;5014141;28;20041;-64
2021/04/23 05:40:55;;;;;;;13.77;2.88;;;12.30;71.00;;;;;;5015495;28;20046;-65
2021/04/23 05:43:21;;;;;;;11.00;2.88;;;12.90;70.30;;;;;;5015935;28;20041;-67
2021/04/23 05:45:48;;;;;;;10.45;2.30;;;13.50;69.00;;;;;;5034065;28;20098;-65
2021/04/23 05:48:19;;;;;;;14.27;2.67;;;13.90;66.40;;;;;;4999174;28;20046;-65
2021/04/23 05:50:46;;;;;;;13.35;2.30;;;14.30;65.40;;;;;;5015928;28;20049;-66
2021/04/23 05:53:13;;;;;;;12.15;2.40;;;14.70;63.70;;;;;;5015347;28;20120;-65
2021/04/23 05:55:40;;;;;;;13.10;2.72;;;15.10;62.50;;;;;;5015543;28;20061;-66
2021/04/23 05:58:06;;;;;;;11.77;2.50;;;15.50;60.90;;;;;;5015144;28;20041;-65
2021/04/23 06:00:35;;;;;;;10.95;2.72;;;15.80;59.60;;;;;;5015162;28;20033;-65
2021/04/23 06:03:04;;;;;;;11.85;2.72;;;16.00;57.70;;;;;;5032927;28;20038;-66
2021/04/23 06:05:31;;;;;;;15.95;2.75;;;16.40;57.80;;;;;;5014558;28;20041;-66
2021/04/23 06:08:00;;;;;;;13.95;2.50;;;16.80;56.40;;;;;;5014965;28;20048;-66
2021/04/23 06:10:27;;;;;;;12.88;2.95;;;17.10;55.10;;;;;;5014655;28;20044;-62
2021/04/23 06:12:54;;;;;;;16.00;2.95;;;17.50;54.10;;;;;;5032739;28;20042;-66
2021/04/23 06:15:20;;;;;;;12.40;2.47;;;17.70;54.00;;;;;;4999017;28;20560;-63
2021/04/23 06:17:46;;;;;;;12.52;2.58;;;18.30;52.60;;;;;;5014712;28;20037;-66
2021/04/23 06:20:17;;;;;;;13.80;3.03;;;18.70;51.40;;;;;;5015592;28;20084;-60
2021/04/23 06:22:42;;;;;;;12.75;3.20;;;19.30;50.70;;;;;;5032406;28;20515;-63
2021/04/23 06:25:12;;;;;;;13.85;2.88;;;19.90;50.10;;;;;;5032711;28;20064;-63
2021/04/23 06:27:39;;;;;;;11.68;3.00;;;20.60;48.40;;;;;;5032653;28;20041;-63
2021/04/23 06:30:09;;;;;;;14.02;2.85;;;20.90;46.90;;;;;;5014425;28;20061;-62
2021/04/23 06:32:35;;;;;;;13.60;3.08;;;21.10;45.10;;;;;;5014627;28;20034;-62
2021/04/23 06:35:00;;;;;;;15.50;3.03;;;21.10;43.70;;;;;;5031853;28;20379;-63
2021/04/23 06:37:26;;;;;;;12.60;2.67;;;21.20;42.50;;;;;;5031900;28;20037;-63
2021/04/23 06:39:52;;;;;;;15.05;3.20;;;21.40;41.80;;;;;;5032489;28;20121;-64
2021/04/23 06:42:17;;;;;;;12.48;2.85;;;21.40;40.90;;;;;;4998287;28;20033;-63
2021/04/23 06:44:43;;;;;;;14.18;2.80;;;21.70;41.50;;;;;;5032075;28;20041;-63
2021/04/23 06:47:09;;;;;;;12.38;3.00;;;22.40;41.10;;;;;;5031256;28;20041;-66
2021/04/23 06:49:35;;;;;;;16.05;3.03;;;22.90;39.70;;;;;;5031938;28;20113;-63
2021/04/23 06:52:01;;;;;;;15.88;2.90;;;23.30;38.70;;;;;;5032064;28;20030;-63
2021/04/23 06:54:26;;;;;;;15.10;3.15;;;23.80;38.60;;;;;;5031706;28;20037;-63
2021/04/23 06:56:52;;;;;;;10.73;2.60;;;24.50;38.10;;;;;;5030214;28;20080;-63
2021/04/23 06:59:18;;;;;;;15.20;2.97;;;25.00;36.80;;;;;;5014106;28;20025;-63
2021/04/23 07:01:44;;;;;;;13.80;2.97;;;25.40;35.80;;;;;;5047827;28;20389;-63
2021/04/23 07:04:09;;;;;;;13.93;2.88;;;25.70;34.60;;;;;;4994637;28;20025;-65
2021/04/23 07:06:39;;;;;;;11.43;2.83;;;25.70;34.10;;;;;;4978059;28;20046;-62
2021/04/23 07:09:06;;;;;;;15.25;3.05;;;26.20;34.10;;;;;;4978519;28;20474;-62
2021/04/23 07:11:32;;;;;;;11.80;3.17;;;26.80;33.10;;;;;;5011681;28;20038;-63
2021/04/23 07:13:58;;;;;;;9.90;2.67;;;27.40;32.30;;;;;;5011674;28;20038;-62
2021/04/23 07:16:24;;;;;;;14.05;2.80;;;27.80;31.40;;;;;;5011777;28;20383;-63
2021/04/23 07:18:50;;;;;;;10.15;2.78;;;28.40;30.70;;;;;;5010811;28;20494;-62
2021/04/23 07:21:16;;;;;;;10.15;2.60;;;28.10;29.10;;;;;;5011524;28;20407;-64
2021/04/23 07:23:42;;;;;;;10.45;2.97;;;27.80;29.80;;;;;;4994405;28;20050;-62
2021/04/23 07:26:08;;;;;;;10.45;2.53;;;28.20;29.60;;;;;;5010850;28;20036;-65
2021/04/23 07:28:34;;;;;;;13.20;3.13;;;28.80;29.10;;;;;;5011516;28;20494;-68
2021/04/23 07:31:00;;;;;;;12.30;3.10;;;29.30;28.00;;;;;;4993515;28;20058;-64
2021/04/23 07:33:26;;;;;;;10.30;2.72;;;29.40;27.60;;;;;;4977499;28;20451;-63
2021/04/23 07:35:52;;;;;;;10.63;2.38;;;29.00;26.70;;;;;;5011463;28;20498;-67
2021/04/23 07:38:19;;;;;;;10.18;2.67;;;28.70;26.90;;;;;;4993429;28;20422;-64
2021/04/23 07:40:45;;;;;;;11.20;2.85;;;28.90;27.10;;;;;;5011466;28;20080;-64
2021/04/23 07:43:12;;;;;;;10.23;2.50;;;29.30;26.60;;;;;;5021056;28;20107;-64
2021/04/23 07:45:38;;;;;;;13.00;2.70;;;29.70;26.50;;;;;;5011280;28;20037;-64
2021/04/23 07:48:06;;;;;;;9.82;2.60;;;30.30;26.30;;;;;;5030335;28;20029;-63
2021/04/23 07:50:33;;;;;;;9.50;2.55;;;30.90;25.60;;;;;;4980201;28;20041;-65
2021/04/23 07:52:59;;;;;;;10.20;2.72;;;30.90;25.10;;;;;;5012842;28;20033;-65
2021/04/23 07:55:25;;;;;;;11.82;2.95;;;30.80;25.00;;;;;;5013275;28;20041;-64
2021/04/23 07:57:53;;;;;;;10.90;2.78;;;31.20;25.20;;;;;;5031965;28;20033;-63
2021/04/23 08:00:22;;;;;;;11.05;2.85;;;31.60;24.70;;;;;;5050053;28;20044;-64
2021/04/23 08:02:49;;;;;;;11.97;3.33;;;32.00;24.20;;;;;;5050314;28;20116;-64
2021/04/23 08:05:17;;;;;;;9.85;2.85;;;32.30;24.10;;;;;;5032782;28;20390;-65
2021/04/23 08:07:44;;;;;;;11.55;2.85;;;32.50;23.90;;;;;;5029080;28;20033;-64
2021/04/23 08:10:13;;;;;;;13.57;2.88;;;32.60;23.70;;;;;;5029690;28;20033;-65
2021/04/23 08:12:39;;;;;;;9.75;2.58;;;32.90;23.50;;;;;;5029159;28;20045;-65
2021/04/23 08:15:10;;;;;;;12.02;2.88;;;32.80;23.40;;;;;;5010956;28;20141;-65
2021/04/23 08:17:36;;;;;;;9.75;2.67;;;33.50;23.50;;;;;;5027919;28;20036;-65
2021/04/23 08:20:07;;;;;;;8.98;2.55;;;33.70;22.60;;;;;;5029756;28;20372;-65
2021/04/23 08:22:34;;;;;;;8.65;2.45;;;33.90;22.40;;;;;;4996354;28;20088;-64
2021/04/23 08:25:00;;;;;;;9.60;2.47;;;33.90;22.10;;;;;;5012888;28;20137;-65
2021/04/23 08:27:27;;;;;;;8.13;2.13;;;33.90;22.10;;;;;;5029252;28;20029;-65
2021/04/23 08:29:54;;;;;;;11.93;2.70;;;34.30;22.10;;;;;;5012917;28;20108;-65
2021/04/23 08:32:21;;;;;;;8.23;2.50;;;34.40;21.40;;;;;;5030812;28;20517;-64
2021/04/23 08:34:47;;;;;;;11.68;2.67;;;33.70;21.60;;;;;;5030233;28;20485;-65
2021/04/23 08:37:13;;;;;;;9.77;2.28;;;32.10;21.20;;;;;;5012512;28;20038;-64
2021/04/23 08:39:40;;;;;;;8.90;2.22;;;31.40;21.40;;;;;;5029732;28;20510;-64
2021/04/23 08:42:07;;;;;;;9.40;2.35;;;30.80;21.70;;;;;;5028414;28;20037;-64
2021/04/23 08:44:32;;;;;;;11.60;2.60;;;31.80;22.30;;;;;;5012862;28;20109;-65
2021/04/23 08:46:59;;;;;;;12.05;2.72;;;33.30;22.00;;;;;;5011626;28;20112;-67
2021/04/23 08:49:25;;;;;;;10.90;2.70;;;34.00;21.40;;;;;;5012417;28;20041;-64
2021/04/23 08:51:53;;;;;;;8.50;2.45;;;34.10;21.20;;;;;;5012127;28;20053;-65
2021/04/23 08:54:26;;;;;;;9.50;2.08;;;34.60;21.30;;;;;;5030263;28;20505;-65
2021/04/23 08:56:52;;;;;;;9.00;2.17;;;35.00;20.90;;;;;;5029380;28;20049;-65
2021/04/23 08:59:18;;;;;;;9.00;2.60;;;35.50;20.60;;;;;;5012163;28;20129;-65
2021/04/23 09:01:45;;;;;;;9.25;2.40;;;35.60;20.50;;;;;;5030085;28;20159;-65
2021/04/23 09:04:12;;;;;;;9.60;2.42;;;36.30;20.40;;;;;;5028295;28;20040;-65
2021/04/23 09:06:39;;;;;;;8.10;2.22;;;35.80;19.70;;;;;;4995797;28;20525;-64
2021/04/23 09:09:14;;;;;;;8.40;2.40;;;33.90;19.20;;;;;;5029170;28;20030;-65
2021/04/23 09:11:43;;;;;;;8.82;2.53;;;33.50;20.40;;;;;;5031235;28;20040;-65
2021/04/23 09:14:17;;;;;;;10.45;2.47;;;34.70;20.40;;;;;;4999415;28;20037;-68
2021/04/23 09:16:55;;;;;;;9.23;2.35;;;34.40;20.00;;;;;;5032976;28;20034;-69
2021/04/23 09:19:33;;;;;;;8.77;2.35;;;34.90;20.30;;;;;;5032763;28;20038;-68
2021/04/23 09:22:02;;;;;;;9.27;2.47;;;35.30;20.00;;;;;;5016402;28;20041;-70
2021/04/23 09:24:43;;;;;;;8.38;2.70;;;36.40;19.90;;;;;;5015715;28;20064;-70
2021/04/23 09:27:15;;;;;;;8.15;2.13;;;37.80;19.90;;;;;;4983649;28;20038;-69
2021/04/23 09:29:46;;;;;;;10.02;2.40;;;38.60;19.30;;;;;;5033266;28;20033;-68
2021/04/23 09:32:16;;;;;;;9.25;2.58;;;38.80;19.00;;;;;;5032533;28;20053;-68
2021/04/23 09:34:58;;;;;;;8.35;2.00;;;39.20;19.20;;;;;;4999917;28;20063;-69
2021/04/23 09:37:40;;;;;;;8.82;2.50;;;39.90;18.90;;;;;;5040107;28;20109;-69
2021/04/23 09:40:15;;;;;;;9.25;2.25;;;40.00;18.30;;;;;;5018944;28;20029;-68
2021/04/23 09:42:51;;;;;;;9.98;2.50;;;39.20;18.30;;;;;;5029956;28;20029;-68
2021/04/23 09:45:38;;;;;;;10.00;2.63;;;39.00;18.50;;;;;;5001988;28;20041;-68
2021/04/23 09:48:04;;;;;;;9.90;2.53;;;39.30;18.60;;;;;;5010088;28;20092;-69
2021/04/23 09:50:36;;;;;;;10.57;2.08;;;40.10;18.40;;;;;;5031803;28;20116;-68
2021/04/23 09:53:02;;;;;;;11.00;2.50;;;40.00;18.30;;;;;;5032570;28;20030;-68
2021/04/23 09:55:33;;;;;;;9.45;2.50;;;40.30;18.30;;;;;;5032188;28;20501;-68
2021/04/23 09:58:07;;;;;;;11.52;2.33;;;40.30;18.00;;;;;;5032376;28;20033;-69
2021/04/23 10:00:40;;;;;;;9.95;2.72;;;38.90;17.80;;;;;;5032242;28;20383;-68
2021/04/23 10:03:07;;;;;;;8.20;2.38;;;38.70;18.20;;;;;;5015362;28;20037;-68
2021/04/23 10:05:41;;;;;;;8.65;2.45;;;38.90;17.80;;;;;;5032500;28;20033;-68
2021/04/23 10:08:22;;;;;;;10.43;2.60;;;39.00;18.20;;;;;;5014630;28;20080;-67
2021/04/23 10:10:54;;;;;;;9.18;2.50;;;39.80;18.10;;;;;;5017401;28;20040;-67
2021/04/23 10:13:28;;;;;;;9.35;2.60;;;40.30;17.80;;;;;;4998611;28;20044;-67
2021/04/23 10:15:57;;;;;;;8.32;2.40;;;39.00;17.50;;;;;;5034046;28;20108;-69
2021/04/23 10:18:24;;;;;;;11.90;2.53;;;38.20;18.20;;;;;;4990171;28;20109;-68
2021/04/23 10:20:52;;;;;;;8.45;2.20;;;39.20;18.40;;;;;;5032283;28;20052;-68
2021/04/23 10:23:21;;;;;;;10.48;2.58;;;40.30;18.00;;;;;;5013659;28;20132;-67
2021/04/23 10:25:48;;;;;;;10.43;2.70;;;39.80;17.30;;;;;;5014562;28;20532;-68
2021/04/23 10:28:19;;;;;;;9.68;2.40;;;39.40;17.80;;;;;;5029794;28;20041;-67
2021/04/23 10:30:47;;;;;;;8.18;2.30;;;39.10;17.80;;;;;;5014575;28;20490;-68
2021/04/23 10:33:25;;;;;;;9.52;2.58;;;39.90;18.10;;;;;;5013988;28;20029;-66
2021/04/23 10:35:55;;;;;;;8.40;2.45;;;40.00;17.50;;;;;;5012733;28;20041;-66
2021/04/23 10:38:25;;;;;;;12.18;2.60;;;38.30;17.50;;;;;;5030550;28;20044;-67
2021/04/23 10:40:59;;;;;;;11.40;2.47;;;38.30;18.00;;;;;;5034981;28;20033;-66
2021/04/23 10:43:25;;;;;;;10.27;2.63;;;39.30;17.90;;;;;;5021424;28;20124;-66
2021/04/23 10:46:11;;;;;;;10.07;2.65;;;39.70;17.70;;;;;;5004970;28;20521;-66
2021/04/23 10:48:45;;;;;;;9.95;2.53;;;39.60;17.90;;;;;;5013700;28;20128;-66
2021/04/23 10:51:28;;;;;;;8.10;2.45;;;39.70;17.70;;;;;;5036223;28;20060;-66
2021/04/23 10:54:03;;;;;;;9.98;2.70;;;39.90;17.80;;;;;;5036895;28;20120;-66
2021/04/23 10:56:37;;;;;;;10.65;2.67;;;39.60;17.60;;;;;;5019551;28;20037;-66
2021/04/23 10:59:22;;;;;;;8.80;2.53;;;39.80;17.60;;;;;;5021068;28;20725;-67
2021/04/23 11:01:52;;;;;;;9.25;2.55;;;40.00;17.80;;;;;;5040007;28;20036;-67
2021/04/23 11:04:20;;;;;;;9.02;2.30;;;40.50;17.50;;;;;;5040176;28;20041;-67
2021/04/23 11:07:16;;;;;;;8.00;2.08;;;40.00;17.60;;;;;;5040700;28;20090;-67
2021/04/23 11:09:57;;;;;;;8.88;2.30;;;40.60;17.90;;;;;;5000788;28;20433;-67
2021/04/23 11:12:25;;;;;;;8.00;2.15;;;41.20;17.70;;;;;;5035186;28;20037;-67
2021/04/23 11:14:51;;;;;;;9.50;2.42;;;41.80;17.60;;;;;;5029353;28;20040;-65
2021/04/23 11:17:17;;;;;;;10.35;2.53;;;42.00;17.20;;;;;;5030218;28;20037;-66
2021/04/23 11:19:44;;;;;;;9.13;2.50;;;41.30;16.90;;;;;;5010878;28;20041;-65
2021/04/23 11:22:16;;;;;;;11.43;2.20;;;40.20;16.80;;;;;;5012783;28;20048;-67
2021/04/23 11:25:13;;;;;;;8.27;2.22;;;39.90;17.00;;;;;;5030695;28;20072;-67
2021/04/23 11:28:09;;;;;;;9.23;2.53;;;40.10;17.20;;;;;;5027459;28;20116;-65
2021/04/23 11:30:58;;;;;;;9.05;2.40;;;39.70;16.80;;;;;;4985562;28;20041;-65
2021/04/23 11:33:42;;;;;;;;;;;38.10;16.90;;;;;;5015548;28;20037;-65
2021/04/23 11:36:25;;;;;;;11.25;2.85;;;35.00;16.60;;;;;;5038737;28;19917;-65
2021/04/23 11:39:09;;;;;;;7.80;2.33;;;34.10;18.30;;;;;;5002382;28;20729;-66
2021/04/23 11:41:34;;;;;;;10.38;2.63;;;35.00;18.40;;;;;;5030493;28;20040;-65
2021/04/23 11:44:00;;;;;;;10.48;2.60;;;34.90;18.20;;;;;;5030913;28;20033;-67
2021/04/23 11:46:54;;;;;;;9.65;2.72;;;35.00;18.60;;;;;;5012858;28;20410;-65
2021/04/23 11:49:20;;;;;;;9.55;2.40;;;36.40;19.20;;;;;;5030573;28;20037;-68
2021/04/23 11:51:52;;;;;;;10.43;2.50;;;37.10;18.50;;;;;;5030736;28;20494;-64
2021/04/23 11:54:31;;;;;;;9.57;2.58;;;34.80;17.60;;;;;;5030415;28;20037;-64
2021/04/23 11:56:58;;;;;;;11.48;2.50;;;32.00;18.70;;;;;;5030038;28;20037;-63
2021/04/23 11:59:24;;;;;;;9.15;2.53;;;32.20;20.20;;;;;;5012760;28;20033;-62
2021/04/23 12:01:50;;;;;;;9.63;2.53;;;33.20;20.00;;;;;;5010625;28;20044;-62
2021/04/23 12:04:43;;;;;;;10.95;2.70;;;33.70;19.40;;;;;;5009390;28;20034;-62
2021/04/23 12:07:09;;;;;;;11.07;2.53;;;33.20;19.30;;;;;;5008590;28;20049;-62
2021/04/23 12:09:35;;;;;;;9.15;2.88;;;33.00;19.60;;;;;;5031190;28;20091;-62
2021/04/23 12:12:12;;;;;;;9.75;2.55;;;32.30;19.40;;;;;;5028901;28;20393;-65
2021/04/23 12:14:47;;;;;;;11.68;2.70;;;31.50;19.90;;;;;;5014801;28;20041;-61
2021/04/23 12:17:13;;;;;;;10.75;2.92;;;30.30;20.00;;;;;;5038651;28;20497;-62
2021/04/23 12:19:40;;;;;;;12.00;2.65;;;29.60;20.70;;;;;;5045046;28;20037;-66
2021/04/23 12:22:06;;;;;;;11.52;2.47;;;29.50;21.20;;;;;;5044291;28;20044;-66
2021/04/23 12:24:33;;;;;;;9.25;2.42;;;29.30;20.90;;;;;;5003015;28;20062;-68
2021/04/23 12:26:59;;;;;;;9.98;2.72;;;29.00;21.30;;;;;;5021431;28;20040;-66
2021/04/23 12:29:25;;;;;;;11.57;2.72;;;29.10;21.30;;;;;;5040159;28;20512;-69
2021/04/23 12:31:52;;;;;;;10.77;3.08;;;28.90;21.40;;;;;;5038349;28;20045;-65
2021/04/23 12:34:18;;;;;;;9.75;2.28;;;28.20;21.10;;;;;;5017274;28;20620;-66
2021/04/23 12:36:46;;;;;;;11.80;3.00;;;27.80;21.70;;;;;;5012525;28;20083;-66
2021/04/23 12:39:24;;;;;;;13.07;2.72;;;26.60;21.30;;;;;;5029076;28;20051;-67
2021/04/23 12:42:02;;;;;;;9.93;2.20;;;26.30;22.70;;;;;;5042344;28;20075;-67
2021/04/23 12:44:30;;;;;;;12.25;2.70;;;27.10;23.30;;;;;;5033332;28;20485;-66
2021/04/23 12:47:13;;;;;;;9.40;2.58;;;27.90;22.90;;;;;;4997179;28;20045;-69
2021/04/23 12:49:43;;;;;;;11.50;2.78;;;27.70;22.60;;;;;;5039201;28;20039;-69